createdAt,value
2023-04-07T00:00:26.260Z,8.20
2023-04-07T00:03:09.133Z,8.22
2023-04-07T00:05:45.099Z,8.21
2023-04-07T00:08:27.322Z,8.21
2023-04-07T00:11:00.316Z,8.21
2023-04-07T00:13:35.556Z,8.18
2023-04-07T00:16:10.454Z,8.23
2023-04-07T00:18:43.496Z,8.24
2023-04-07T00:21:21.291Z,8.23
2023-04-07T00:23:56.480Z,8.23
2023-04-07T00:26:24.570Z,8.23
2023-04-07T00:28:55.050Z,8.24
2023-04-07T00:31:35.783Z,8.23
2023-04-07T00:34:15.806Z,8.24
2023-04-07T00:36:53.534Z,8.24
2023-04-07T00:39:33.566Z,8.24
2023-04-07T00:42:07.943Z,8.23
2023-04-07T00:44:47.389Z,8.21
2023-04-07T00:47:18.065Z,8.18
2023-04-07T00:49:51.379Z,8.18
2023-04-07T00:52:30.072Z,8.15
2023-04-07T00:54:58.088Z,8.09
2023-04-07T00:57:36.881Z,8.08
2023-04-07T01:00:14.878Z,8.05
2023-04-07T01:03:16.377Z,8.03
2023-04-07T01:05:59.200Z,8.01
2023-04-07T01:08:40.162Z,8.02
2023-04-07T01:11:30.010Z,8.02
2023-04-07T01:14:02.925Z,8.01
2023-04-07T01:16:44.671Z,7.98
2023-04-07T01:19:50.367Z,7.93
2023-04-07T01:22:19.563Z,7.88
2023-04-07T01:25:09.272Z,7.89
2023-04-07T01:27:40.223Z,7.87
2023-04-07T01:30:13.270Z,7.87
2023-04-07T01:32:57.532Z,7.88
2023-04-07T01:35:30.979Z,7.89
2023-04-07T01:38:04.541Z,7.92
2023-04-07T01:43:30.255Z,7.93
2023-04-07T01:45:58.954Z,7.94
2023-04-07T01:48:33.209Z,7.93
2023-04-07T01:51:07.211Z,7.93
2023-04-07T01:53:39.270Z,7.94
2023-04-07T01:56:12.168Z,7.92
2023-04-07T01:58:51.893Z,7.93
2023-04-07T02:01:50.099Z,7.94
2023-04-07T02:04:27.655Z,7.93
2023-04-07T02:07:02.288Z,7.92
2023-04-07T02:09:35.362Z,7.87
2023-04-07T02:12:07.951Z,7.88
2023-04-07T02:14:44.437Z,7.87
2023-04-07T02:17:31.364Z,7.85
2023-04-07T02:20:11.623Z,7.83
2023-04-07T02:22:43.998Z,7.84
2023-04-07T02:25:25.469Z,7.85
2023-04-07T02:27:59.500Z,7.86
2023-04-07T02:30:29.998Z,7.84
2023-04-07T02:33:23.011Z,7.83
2023-04-07T02:35:52.870Z,7.85
2023-04-07T02:38:25.933Z,7.85
2023-04-07T02:40:53.932Z,7.86
2023-04-07T02:43:23.237Z,7.83
2023-04-07T02:45:54.193Z,7.81
2023-04-07T02:48:29.022Z,7.81
2023-04-07T02:51:22.044Z,7.81
2023-04-07T02:54:15.211Z,7.79
2023-04-07T02:56:48.323Z,7.79
2023-04-07T02:59:16.313Z,7.79
2023-04-07T03:01:50.728Z,7.81
2023-04-07T03:04:24.081Z,7.81
2023-04-07T03:07:23.236Z,7.78
2023-04-07T03:09:54.013Z,7.76
2023-04-07T03:12:22.103Z,7.79
2023-04-07T03:14:54.901Z,7.81
2023-04-07T03:17:40.445Z,7.82
2023-04-07T03:20:34.907Z,7.82
2023-04-07T03:23:06.302Z,7.82
2023-04-07T03:25:39.175Z,7.80
2023-04-07T03:28:12.366Z,7.77
2023-04-07T03:30:46.827Z,7.76
2023-04-07T03:33:18.604Z,7.76
2023-04-07T03:35:46.658Z,7.71
2023-04-07T03:38:20.238Z,7.68
2023-04-07T03:40:48.200Z,7.66
2023-04-07T03:43:21.358Z,7.67
2023-04-07T03:45:54.927Z,7.67
2023-04-07T03:48:23.075Z,7.65
2023-04-07T03:50:55.325Z,7.62
2023-04-07T03:53:48.466Z,7.59
2023-04-07T03:56:32.140Z,7.56
2023-04-07T03:59:00.131Z,7.54
2023-04-07T04:01:31.057Z,7.51
2023-04-07T04:04:02.401Z,7.48
2023-04-07T04:06:35.487Z,7.46
2023-04-07T04:09:08.585Z,7.44
2023-04-07T04:11:43.621Z,7.44
2023-04-07T04:14:26.112Z,7.40
2023-04-07T04:17:08.556Z,7.41
2023-04-07T04:19:44.400Z,7.41
2023-04-07T04:22:16.206Z,7.36
2023-04-07T04:24:49.372Z,7.30
2023-04-07T04:27:21.551Z,7.31
2023-04-07T04:30:00.716Z,7.30
2023-04-07T04:32:32.198Z,7.26
2023-04-07T04:35:05.362Z,7.21
2023-04-07T04:37:36.411Z,7.20
2023-04-07T04:40:13.784Z,7.21
2023-04-07T04:42:50.960Z,7.18
2023-04-07T04:45:46.940Z,7.17
2023-04-07T04:48:16.828Z,7.16
2023-04-07T04:50:45.199Z,7.19
2023-04-07T04:53:18.641Z,7.21
2023-04-07T04:55:53.410Z,7.21
2023-04-07T04:58:27.537Z,7.20
2023-04-07T05:00:59.339Z,7.21
2023-04-07T05:03:34.424Z,7.22
2023-04-07T05:06:05.618Z,7.21
2023-04-07T05:08:45.949Z,7.21
2023-04-07T05:11:28.720Z,7.12
2023-04-07T05:14:09.532Z,7.04
2023-04-07T05:17:01.412Z,7.00
2023-04-07T05:19:35.762Z,6.97
2023-04-07T05:22:07.383Z,6.93
2023-04-07T05:24:49.795Z,6.94
2023-04-07T05:27:22.970Z,6.95
2023-04-07T05:29:55.841Z,6.95
2023-04-07T05:32:24.982Z,6.95
2023-04-07T05:35:00.654Z,6.93
2023-04-07T05:37:34.290Z,6.93
2023-04-07T05:43:10.388Z,6.91
2023-04-07T05:45:39.647Z,6.91
2023-04-07T05:48:15.612Z,6.91
2023-04-07T05:50:44.584Z,6.94
2023-04-07T05:53:28.142Z,6.93
2023-04-07T05:56:00.997Z,6.94
2023-04-07T05:58:36.694Z,6.96
2023-04-07T06:01:04.693Z,6.93
2023-04-07T06:03:37.903Z,6.95
2023-04-07T06:06:11.349Z,6.98
2023-04-07T06:08:51.852Z,7.00
2023-04-07T06:11:33.511Z,7.02
2023-04-07T06:14:15.787Z,7.08
2023-04-07T06:16:48.899Z,7.14
2023-04-07T06:19:24.651Z,7.26
2023-04-07T06:21:58.889Z,7.38
2023-04-07T06:24:39.030Z,7.48
2023-04-07T06:27:14.548Z,7.59
2023-04-07T06:29:50.324Z,7.74
2023-04-07T06:32:24.681Z,7.85
2023-04-07T06:34:57.411Z,8.01
2023-04-07T06:37:30.493Z,8.07
2023-04-07T06:40:12.339Z,8.08
2023-04-07T06:42:48.124Z,8.11
2023-04-07T06:45:20.852Z,8.07
2023-04-07T06:47:57.640Z,8.05
2023-04-07T06:50:31.476Z,8.10
2023-04-07T06:53:07.190Z,8.09
2023-04-07T06:55:38.591Z,8.06
2023-04-07T06:58:17.331Z,8.08
2023-04-07T07:00:49.948Z,8.11
2023-04-07T07:03:20.199Z,8.17
2023-04-07T07:05:54.117Z,8.22
2023-04-07T07:08:36.048Z,8.29
2023-04-07T07:11:04.078Z,8.40
2023-04-07T07:13:37.166Z,8.52
2023-04-07T07:16:25.405Z,8.60
2023-04-07T07:18:58.355Z,8.70
2023-04-07T07:21:33.576Z,8.81
2023-04-07T07:24:06.949Z,8.84
2023-04-07T07:26:47.925Z,8.86
2023-04-07T07:29:29.446Z,8.96
2023-04-07T07:32:11.302Z,9.08
2023-04-07T07:34:44.452Z,9.15
2023-04-07T07:37:20.248Z,9.17
2023-04-07T07:39:53.092Z,9.19
2023-04-07T07:42:46.172Z,9.34
2023-04-07T07:45:19.143Z,9.41
2023-04-07T07:47:58.754Z,9.70
2023-04-07T07:53:15.230Z,9.61
2023-04-07T07:55:48.667Z,9.63
2023-04-07T07:58:17.241Z,9.58
2023-04-07T08:00:59.111Z,9.61
2023-04-07T08:03:31.951Z,9.54
2023-04-07T08:06:15.252Z,9.56
2023-04-07T08:08:46.563Z,9.59
2023-04-07T08:11:18.426Z,9.58
2023-04-07T08:13:59.109Z,9.56
2023-04-07T08:16:29.386Z,9.57
2023-04-07T08:18:57.868Z,9.60
2023-04-07T08:21:25.826Z,9.65
2023-04-07T08:23:58.522Z,9.75
2023-04-07T08:26:37.193Z,9.85
2023-04-07T08:29:11.040Z,9.90
2023-04-07T08:31:43.945Z,9.97
2023-04-07T08:34:17.908Z,10.21
2023-04-07T08:37:11.047Z,10.54
2023-04-07T08:39:58.996Z,10.84
2023-04-07T08:42:29.512Z,10.95
2023-04-07T08:45:07.712Z,10.82
2023-04-07T08:50:31.271Z,10.64
2023-04-07T08:53:07.433Z,10.63
2023-04-07T08:55:49.581Z,10.61
2023-04-07T08:58:35.143Z,10.66
2023-04-07T09:01:04.215Z,10.75
2023-04-07T09:03:34.022Z,10.84
2023-04-07T09:06:02.897Z,10.88
2023-04-07T09:08:30.985Z,10.84
2023-04-07T09:10:59.142Z,10.86
2023-04-07T09:13:27.339Z,10.86
2023-04-07T09:15:55.366Z,10.85
2023-04-07T09:18:23.297Z,10.79
2023-04-07T09:21:04.004Z,10.74
2023-04-07T09:23:33.485Z,10.76
2023-04-07T09:26:03.491Z,10.78
2023-04-07T09:28:44.219Z,10.83
2023-04-07T09:31:12.493Z,10.81
2023-04-07T09:33:40.709Z,10.81
2023-04-07T09:36:09.294Z,10.84
2023-04-07T09:38:39.070Z,10.80
2023-04-07T09:41:17.770Z,10.79
2023-04-07T09:43:47.004Z,10.78
2023-04-07T09:46:19.570Z,10.81
2023-04-07T09:48:48.076Z,10.81
2023-04-07T09:51:19.728Z,10.85
2023-04-07T09:53:49.774Z,10.89
2023-04-07T09:56:21.275Z,10.96
2023-04-07T09:58:49.932Z,11.01
2023-04-07T10:01:20.736Z,11.05
2023-04-07T10:03:52.217Z,11.08
2023-04-07T10:06:20.352Z,11.11
2023-04-07T10:08:48.541Z,11.13
2023-04-07T10:11:17.141Z,11.20
2023-04-07T10:13:45.192Z,11.24
2023-04-07T10:16:13.297Z,11.32
2023-04-07T10:18:41.326Z,11.34
2023-04-07T10:21:10.552Z,11.36
2023-04-07T10:23:42.322Z,11.40
2023-04-07T10:26:10.427Z,11.39
2023-04-07T10:28:39.886Z,11.42
2023-04-07T10:31:08.024Z,11.45
2023-04-07T10:33:53.136Z,11.50
2023-04-07T10:36:22.363Z,11.61
2023-04-07T10:39:08.744Z,11.73
2023-04-07T10:41:40.690Z,11.88
2023-04-07T10:44:09.914Z,11.96
2023-04-07T10:46:58.500Z,12.06
2023-04-07T10:49:27.018Z,12.17
2023-04-07T10:52:13.487Z,12.30
2023-04-07T10:54:42.096Z,12.46
2023-04-07T10:57:14.853Z,12.59
2023-04-07T11:00:14.002Z,12.72
2023-04-07T11:02:42.323Z,12.81
2023-04-07T11:05:22.794Z,12.93
2023-04-07T11:07:52.731Z,13.08
2023-04-07T11:10:21.760Z,13.21
2023-04-07T11:13:06.243Z,13.32
2023-04-07T11:15:37.051Z,13.42
2023-04-07T11:18:20.720Z,13.41
2023-04-07T11:20:56.084Z,13.48
2023-04-07T11:23:25.439Z,13.64
2023-04-07T11:25:54.598Z,13.84
2023-04-07T11:28:22.656Z,14.11
2023-04-07T11:30:55.284Z,14.25
2023-04-07T11:33:25.477Z,14.35
2023-04-07T11:36:01.045Z,14.40
2023-04-07T11:38:30.449Z,14.41
2023-04-07T11:40:58.562Z,14.46
2023-04-07T11:43:28.519Z,14.39
2023-04-07T11:46:10.046Z,14.35
2023-04-07T11:48:38.864Z,14.35
2023-04-07T11:51:07.050Z,14.38
2023-04-07T11:53:37.282Z,14.44
2023-04-07T11:56:08.214Z,14.44
2023-04-07T11:58:36.296Z,14.51
2023-04-07T12:01:10.013Z,14.62
2023-04-07T12:03:38.442Z,14.65
2023-04-07T12:06:06.877Z,14.74
2023-04-07T12:08:45.342Z,14.80
2023-04-07T12:11:13.827Z,14.95
2023-04-07T12:13:42.811Z,14.97
2023-04-07T12:16:11.168Z,14.86
2023-04-07T12:18:39.276Z,14.69
2023-04-07T12:21:07.341Z,14.73
2023-04-07T12:23:35.459Z,14.71
2023-04-07T12:26:03.942Z,14.79
2023-04-07T12:28:32.018Z,14.81
2023-04-07T12:31:00.280Z,14.85
2023-04-07T12:33:28.320Z,15.00
2023-04-07T12:35:56.521Z,15.09
2023-04-07T12:38:24.674Z,15.06
2023-04-07T12:40:53.129Z,15.06
2023-04-07T12:43:21.599Z,15.13
2023-04-07T12:45:49.714Z,15.05
2023-04-07T12:48:18.207Z,14.97
2023-04-07T12:50:46.283Z,14.82
2023-04-07T12:53:14.872Z,14.71
2023-04-07T12:55:43.498Z,14.75
2023-04-07T12:58:11.664Z,14.66
2023-04-07T13:00:39.731Z,14.54
2023-04-07T13:03:08.762Z,14.39
2023-04-07T13:05:37.228Z,14.30
2023-04-07T13:08:06.214Z,14.20
2023-04-07T13:10:34.441Z,14.23
2023-04-07T13:13:02.605Z,14.35
2023-04-07T13:15:30.752Z,14.23
2023-04-07T13:17:59.048Z,14.36
2023-04-07T13:20:29.475Z,14.33
2023-04-07T13:23:07.822Z,14.42
2023-04-07T13:25:38.961Z,14.36
2023-04-07T13:28:07.256Z,14.51
2023-04-07T13:30:35.693Z,14.21
2023-04-07T13:33:03.882Z,13.77
2023-04-07T13:35:36.918Z,13.46
2023-04-07T13:38:05.287Z,13.57
2023-04-07T13:40:33.394Z,13.31
2023-04-07T13:43:02.363Z,13.67
2023-04-07T13:45:30.404Z,13.93
2023-04-07T13:47:58.491Z,14.15
2023-04-07T13:50:26.636Z,13.99
2023-04-07T13:52:54.712Z,13.79
2023-04-07T13:55:22.796Z,13.66
2023-04-07T13:57:50.977Z,13.74
2023-04-07T14:00:19.276Z,13.84
2023-04-07T14:02:49.075Z,13.89
2023-04-07T14:05:17.217Z,13.83
2023-04-07T14:07:45.334Z,13.85
2023-04-07T14:10:13.422Z,13.96
2023-04-07T14:12:41.463Z,14.14
2023-04-07T14:15:10.064Z,14.47
2023-04-07T14:17:39.254Z,14.63
2023-04-07T14:20:08.230Z,14.31
2023-04-07T14:22:36.382Z,14.09
2023-04-07T14:25:05.263Z,14.20
2023-04-07T14:27:33.259Z,14.41
2023-04-07T14:30:01.544Z,14.55
2023-04-07T14:32:30.809Z,14.52
2023-04-07T14:35:00.434Z,14.59
2023-04-07T14:37:29.870Z,14.60
2023-04-07T14:40:02.821Z,14.33
2023-04-07T14:42:31.465Z,14.02
2023-04-07T14:45:00.836Z,13.55
2023-04-07T14:47:29.275Z,13.40
2023-04-07T14:49:57.433Z,13.39
2023-04-07T14:52:25.821Z,12.99
2023-04-07T14:54:54.046Z,12.82
2023-04-07T14:57:22.211Z,12.67
2023-04-07T14:59:50.221Z,12.55
2023-04-07T15:02:18.518Z,12.45
2023-04-07T15:04:46.692Z,12.68
2023-04-07T15:07:14.801Z,12.64
2023-04-07T15:09:42.999Z,12.50
2023-04-07T15:12:11.037Z,12.39
2023-04-07T15:14:39.105Z,12.21
2023-04-07T15:17:07.168Z,12.35
2023-04-07T15:19:35.135Z,12.28
2023-04-07T15:22:03.232Z,12.17
2023-04-07T15:24:31.431Z,12.37
2023-04-07T15:26:59.537Z,12.53
2023-04-07T15:29:27.521Z,12.67
2023-04-07T15:31:56.503Z,12.47
2023-04-07T15:34:24.690Z,12.12
2023-04-07T15:36:52.943Z,12.08
2023-04-07T15:39:20.893Z,12.18
2023-04-07T15:41:48.909Z,12.26
2023-04-07T15:44:20.563Z,12.26
2023-04-07T15:46:48.814Z,12.26
2023-04-07T15:49:21.731Z,12.21
2023-04-07T15:51:50.730Z,12.23
2023-04-07T15:54:18.890Z,12.21
2023-04-07T15:56:46.996Z,12.11
2023-04-07T15:59:15.076Z,12.12
2023-04-07T16:01:43.199Z,12.13
2023-04-07T16:04:11.303Z,12.05
2023-04-07T16:06:40.201Z,12.04
2023-04-07T16:09:09.436Z,11.95
2023-04-07T16:11:37.591Z,11.91
2023-04-07T16:14:06.143Z,11.91
2023-04-07T16:16:37.402Z,11.85
2023-04-07T16:19:05.518Z,11.77
2023-04-07T16:21:33.699Z,11.76
2023-04-07T16:24:01.953Z,11.67
2023-04-07T16:26:30.104Z,11.60
2023-04-07T16:28:58.028Z,11.55
2023-04-07T16:31:26.090Z,11.47
2023-04-07T16:33:54.169Z,11.36
2023-04-07T16:36:22.159Z,11.29
2023-04-07T16:38:52.396Z,11.23
2023-04-07T16:41:20.438Z,11.16
2023-04-07T16:43:48.723Z,11.14
2023-04-07T16:46:17.074Z,11.08
2023-04-07T16:48:45.147Z,11.04
2023-04-07T16:51:20.862Z,11.01
2023-04-07T16:53:49.202Z,10.91
2023-04-07T16:56:24.210Z,10.87
2023-04-07T16:58:52.603Z,10.78
2023-04-07T17:01:20.789Z,10.75
2023-04-07T17:03:52.768Z,10.71
2023-04-07T17:06:21.271Z,10.69
2023-04-07T17:08:50.266Z,10.64
2023-04-07T17:11:18.264Z,10.56
2023-04-07T17:13:46.528Z,10.55
2023-04-07T17:16:17.798Z,10.52
2023-04-07T17:18:45.909Z,10.49
2023-04-07T17:21:16.575Z,10.46
2023-04-07T17:23:44.939Z,10.43
2023-04-07T17:26:13.031Z,10.40
2023-04-07T17:28:41.070Z,10.37
2023-04-07T17:31:09.208Z,10.37
2023-04-07T17:33:37.254Z,10.29
2023-04-07T17:36:05.540Z,10.31
2023-04-07T17:38:33.639Z,10.30
2023-04-07T17:41:03.066Z,10.26
2023-04-07T17:43:31.138Z,10.22
2023-04-07T17:45:59.210Z,10.17
2023-04-07T17:48:27.925Z,10.13
2023-04-07T17:50:55.906Z,10.07
2023-04-07T17:53:23.951Z,10.02
2023-04-07T17:55:52.177Z,9.98
2023-04-07T17:58:22.427Z,9.89
2023-04-07T18:00:51.886Z,9.86
2023-04-07T18:03:21.103Z,9.83
2023-04-07T18:05:50.487Z,9.78
2023-04-07T18:08:18.478Z,9.77
2023-04-07T18:10:46.565Z,9.77
2023-04-07T18:13:14.820Z,9.76
2023-04-07T18:15:43.011Z,9.73
2023-04-07T18:18:10.995Z,9.72
2023-04-07T18:20:39.217Z,9.70
2023-04-07T18:23:07.507Z,9.68
2023-04-07T18:25:35.756Z,9.66
2023-04-07T18:28:03.986Z,9.62
2023-04-07T18:30:32.115Z,9.59
2023-04-07T18:33:00.154Z,9.57
2023-04-07T18:35:28.600Z,9.53
2023-04-07T18:37:56.789Z,9.51
2023-04-07T18:40:25.044Z,9.46
2023-04-07T18:42:53.321Z,9.40
2023-04-07T18:45:21.533Z,9.39
2023-04-07T18:47:49.704Z,9.38
2023-04-07T18:50:17.760Z,9.36
2023-04-07T18:52:45.728Z,9.36
2023-04-07T18:55:13.762Z,9.33
2023-04-07T18:57:41.758Z,9.32
2023-04-07T19:00:10.143Z,9.28
2023-04-07T19:02:39.914Z,9.27
2023-04-07T19:05:08.265Z,9.26
2023-04-07T19:07:36.193Z,9.21
2023-04-07T19:10:04.383Z,9.19
2023-04-07T19:12:32.626Z,9.19
2023-04-07T19:15:00.908Z,9.16
2023-04-07T19:17:28.993Z,9.11
2023-04-07T19:19:57.230Z,9.06
2023-04-07T19:22:25.388Z,8.99
2023-04-07T19:24:53.791Z,8.94
2023-04-07T19:27:21.899Z,8.93
2023-04-07T19:29:49.858Z,8.96
2023-04-07T19:32:17.932Z,8.97
2023-04-07T19:34:46.102Z,8.98
2023-04-07T19:37:14.172Z,8.97
2023-04-07T19:39:52.187Z,9.00
2023-04-07T19:42:30.591Z,9.01
2023-04-07T19:45:01.477Z,9.03
2023-04-07T19:47:30.129Z,9.00
2023-04-07T19:49:58.408Z,9.00
2023-04-07T19:52:26.442Z,8.98
2023-04-07T19:54:54.423Z,8.98
2023-04-07T19:57:23.218Z,8.97
2023-04-07T19:59:51.372Z,8.98
2023-04-07T20:02:19.679Z,8.98
2023-04-07T20:04:47.750Z,8.95
2023-04-07T20:07:15.780Z,8.96
2023-04-07T20:09:43.964Z,8.96
2023-04-07T20:12:12.328Z,8.95
2023-04-07T20:14:40.514Z,8.96
2023-04-07T20:17:09.142Z,8.94
2023-04-07T20:19:38.192Z,8.92
2023-04-07T20:22:06.335Z,8.90
2023-04-07T20:24:37.105Z,8.91
2023-04-07T20:27:05.172Z,8.88
2023-04-07T20:29:33.373Z,8.88
2023-04-07T20:32:01.486Z,8.90
2023-04-07T20:34:29.487Z,8.89
2023-04-07T20:36:57.924Z,8.89
2023-04-07T20:39:25.937Z,8.88
2023-04-07T20:41:53.918Z,8.85
2023-04-07T20:44:22.827Z,8.83
2023-04-07T20:46:50.861Z,8.82
2023-04-07T20:49:18.959Z,8.81
2023-04-07T20:51:46.975Z,8.77
2023-04-07T20:54:15.338Z,8.74
2023-04-07T20:56:44.516Z,8.78
2023-04-07T20:59:12.579Z,8.80
2023-04-07T21:01:40.772Z,8.79
2023-04-07T21:04:09.105Z,8.78
2023-04-07T21:06:37.385Z,8.80
2023-04-07T21:09:07.067Z,8.78
2023-04-07T21:11:35.123Z,8.76
2023-04-07T21:14:03.157Z,8.73
2023-04-07T21:16:31.501Z,8.74
2023-04-07T21:18:59.551Z,8.73
2023-04-07T21:21:28.003Z,8.73
2023-04-07T21:23:56.036Z,8.73
2023-04-07T21:26:24.123Z,8.71
2023-04-07T21:28:55.432Z,8.69
2023-04-07T21:31:24.901Z,8.66
2023-04-07T21:33:54.174Z,8.65
2023-04-07T21:36:22.694Z,8.64
2023-04-07T21:38:53.730Z,8.62
2023-04-07T21:41:22.495Z,8.62
2023-04-07T21:43:50.595Z,8.59
2023-04-07T21:46:18.970Z,8.58
2023-04-07T21:48:47.232Z,8.56
2023-04-07T21:51:15.573Z,8.57
2023-04-07T21:53:43.620Z,8.55
2023-04-07T21:56:12.345Z,8.54
2023-04-07T21:58:40.547Z,8.52
2023-04-07T22:01:08.748Z,8.51
2023-04-07T22:03:36.926Z,8.51
2023-04-07T22:06:05.148Z,8.50
2023-04-07T22:08:33.124Z,8.48
2023-04-07T22:11:01.263Z,8.46
2023-04-07T22:13:29.446Z,8.46
2023-04-07T22:15:57.736Z,8.45
2023-04-07T22:18:25.779Z,8.43
2023-04-07T22:20:53.913Z,8.41
2023-04-07T22:23:22.014Z,8.39
2023-04-07T22:25:50.676Z,8.38
2023-04-07T22:28:18.718Z,8.37
2023-04-07T22:30:46.734Z,8.38
2023-04-07T22:33:14.848Z,8.36
2023-04-07T22:35:42.875Z,8.35
2023-04-07T22:38:10.977Z,8.31
2023-04-07T22:40:39.015Z,8.29
2023-04-07T22:43:07.039Z,8.24
2023-04-07T22:45:35.101Z,8.23
2023-04-07T22:48:03.869Z,8.22
2023-04-07T22:50:31.957Z,8.25
2023-04-07T22:52:59.989Z,8.26
2023-04-07T22:55:28.728Z,8.28
2023-04-07T22:57:56.787Z,8.30
2023-04-07T23:00:24.980Z,8.25
2023-04-07T23:02:53.220Z,8.27
2023-04-07T23:05:21.503Z,8.24
2023-04-07T23:07:49.671Z,8.23
2023-04-07T23:10:17.706Z,8.22
2023-04-07T23:12:45.757Z,8.23
2023-04-07T23:15:13.906Z,8.25
2023-04-07T23:17:42.181Z,8.24
2023-04-07T23:20:10.989Z,8.17
2023-04-07T23:22:39.478Z,8.16
2023-04-07T23:25:08.325Z,8.14
2023-04-07T23:27:36.441Z,8.08
2023-04-07T23:30:05.548Z,8.02
2023-04-07T23:32:33.514Z,7.99
2023-04-07T23:35:01.545Z,7.96
2023-04-07T23:37:29.587Z,7.95
2023-04-07T23:39:57.667Z,7.94
2023-04-07T23:42:25.717Z,7.92
2023-04-07T23:44:53.712Z,7.94
2023-04-07T23:47:22.364Z,7.98
2023-04-07T23:49:50.432Z,8.01
2023-04-07T23:52:18.442Z,7.99
2023-04-07T23:54:46.377Z,7.96
2023-04-07T23:57:14.389Z,7.92
2023-04-07T23:59:42.460Z,7.89
